createdAt,value
2022-10-09T00:03:36.059Z,12.40
2022-10-09T00:08:40.422Z,14.38
2022-10-09T00:13:45.127Z,12.65
2022-10-09T00:18:48.687Z,14.10
2022-10-09T00:23:53.652Z,14.88
2022-10-09T00:28:58.301Z,12.30
2022-10-09T00:34:01.377Z,13.13
2022-10-09T00:39:04.517Z,12.70
2022-10-09T00:44:40.769Z,12.23
2022-10-09T00:49:45.330Z,12.45
2022-10-09T00:54:48.640Z,13.95
2022-10-09T00:59:51.784Z,11.23
2022-10-09T01:04:56.197Z,12.00
2022-10-09T01:10:04.175Z,12.05
2022-10-09T01:15:16.430Z,11.27
2022-10-09T01:20:35.607Z,11.30
2022-10-09T01:25:51.276Z,10.75
2022-10-09T01:30:56.465Z,10.38
2022-10-09T01:36:00.834Z,11.25
2022-10-09T01:41:05.867Z,11.82
2022-10-09T01:46:24.983Z,8.90
2022-10-09T01:51:33.270Z,10.90
2022-10-09T01:56:40.088Z,10.60
2022-10-09T02:01:45.726Z,11.27
2022-10-09T02:06:49.603Z,10.73
2022-10-09T02:11:56.703Z,9.23
2022-10-09T02:17:06.167Z,8.98
2022-10-09T02:22:14.145Z,9.80
2022-10-09T02:27:19.987Z,9.15
2022-10-09T02:32:24.860Z,8.18
2022-10-09T02:37:27.899Z,8.77
2022-10-09T02:42:30.945Z,8.73
2022-10-09T02:47:35.359Z,8.38
2022-10-09T02:52:38.373Z,8.93
2022-10-09T02:57:41.424Z,8.38
2022-10-09T03:02:45.974Z,7.78
2022-10-09T03:07:53.077Z,7.10
2022-10-09T03:12:56.107Z,7.65
2022-10-09T03:18:00.492Z,8.23
2022-10-09T03:23:03.488Z,7.15
2022-10-09T03:28:06.635Z,7.32
2022-10-09T03:33:11.031Z,6.55
2022-10-09T03:38:14.422Z,6.43
2022-10-09T03:43:17.448Z,7.93
2022-10-09T03:48:21.896Z,6.43
2022-10-09T03:53:24.993Z,4.97
2022-10-09T03:58:28.057Z,7.90
2022-10-09T04:03:32.588Z,6.47
2022-10-09T04:08:36.820Z,7.50
2022-10-09T04:13:39.843Z,7.70
2022-10-09T04:18:45.483Z,6.75
2022-10-09T04:23:48.500Z,6.72
2022-10-09T04:28:51.655Z,6.65
2022-10-09T04:33:57.365Z,6.18
2022-10-09T04:39:00.420Z,6.15
2022-10-09T04:44:03.899Z,7.05
2022-10-09T04:49:08.301Z,5.85
2022-10-09T04:54:11.488Z,6.28
2022-10-09T04:59:14.531Z,7.63
2022-10-09T05:04:18.943Z,6.43
2022-10-09T05:09:22.003Z,6.45
2022-10-09T05:14:25.104Z,6.22
2022-10-09T05:19:30.801Z,6.32
2022-10-09T05:24:33.865Z,8.27
2022-10-09T05:29:36.887Z,7.88
2022-10-09T05:34:41.371Z,6.55
2022-10-09T05:39:45.168Z,5.78
2022-10-09T05:44:48.167Z,5.68
2022-10-09T05:49:52.592Z,5.97
2022-10-09T05:54:57.103Z,5.95
2022-10-09T06:00:00.205Z,5.00
2022-10-09T06:05:04.667Z,6.00
2022-10-09T06:10:08.499Z,5.53
2022-10-09T06:15:12.027Z,5.25
2022-10-09T06:20:16.554Z,5.30
2022-10-09T06:25:19.553Z,5.38
2022-10-09T06:30:22.575Z,6.53
2022-10-09T06:35:26.972Z,4.90
2022-10-09T06:40:29.959Z,3.78
2022-10-09T06:45:37.305Z,4.95
2022-10-09T06:50:41.708Z,6.47
2022-10-09T06:55:53.011Z,4.65
2022-10-09T07:01:04.814Z,4.68
2022-10-09T07:06:11.444Z,5.25
2022-10-09T07:11:16.313Z,5.85
2022-10-09T07:16:22.170Z,5.10
2022-10-09T07:21:27.158Z,4.82
2022-10-09T07:26:31.603Z,4.75
2022-10-09T07:31:34.753Z,6.55
2022-10-09T07:36:39.188Z,5.43
2022-10-09T07:41:43.346Z,6.35
2022-10-09T07:46:46.741Z,5.25
2022-10-09T07:51:51.201Z,4.97
2022-10-09T07:56:54.248Z,4.13
2022-10-09T08:01:57.309Z,5.68
2022-10-09T08:07:01.841Z,6.60
2022-10-09T08:12:05.158Z,5.47
2022-10-09T08:17:08.199Z,4.35
2022-10-09T08:22:12.777Z,4.00
2022-10-09T08:27:15.828Z,6.35
2022-10-09T08:32:18.865Z,4.22
2022-10-09T08:37:23.277Z,4.25
2022-10-09T08:42:32.257Z,4.97
2022-10-09T08:47:42.087Z,5.95
2022-10-09T08:52:52.238Z,4.28
2022-10-09T08:57:57.596Z,3.22
2022-10-09T09:03:22.121Z,4.03
2022-10-09T09:08:42.207Z,4.30
2022-10-09T09:13:58.944Z,4.78
2022-10-09T09:19:17.752Z,4.25
2022-10-09T09:24:24.696Z,4.13
2022-10-09T09:29:28.473Z,3.90
2022-10-09T09:34:40.154Z,3.22
2022-10-09T09:40:31.345Z,3.78
2022-10-09T09:45:14.871Z,5.13
2022-10-09T09:50:46.189Z,3.20
2022-10-09T09:55:54.915Z,3.05
2022-10-09T10:01:01.358Z,4.65
2022-10-09T10:06:04.808Z,4.88
2022-10-09T10:11:09.379Z,3.00
2022-10-09T10:16:23.430Z,3.40
2022-10-09T10:21:26.595Z,3.08
2022-10-09T10:26:35.634Z,3.15
2022-10-09T10:31:48.470Z,3.85
2022-10-09T10:37:01.114Z,3.92
2022-10-09T10:42:16.143Z,3.25
2022-10-09T10:47:25.116Z,4.00
2022-10-09T10:52:42.903Z,2.50
2022-10-09T10:57:53.490Z,2.75
2022-10-09T11:03:23.639Z,3.28
2022-10-09T11:08:41.488Z,3.25
2022-10-09T11:13:56.654Z,4.30
2022-10-09T11:19:17.118Z,3.63
2022-10-09T11:24:47.615Z,3.13
2022-10-09T11:29:57.119Z,4.85
2022-10-09T11:35:05.704Z,2.67
2022-10-09T11:40:15.979Z,3.97
2022-10-09T11:45:29.138Z,3.92
2022-10-09T11:50:43.237Z,3.05
2022-10-09T11:55:48.207Z,3.22
2022-10-09T12:00:54.941Z,3.60
2022-10-09T12:06:06.915Z,2.58
2022-10-09T12:11:16.350Z,3.10
2022-10-09T12:16:42.697Z,3.58
2022-10-09T12:21:53.045Z,2.85
2022-10-09T12:27:00.920Z,2.83
2022-10-09T12:32:09.261Z,2.67
2022-10-09T12:37:14.363Z,3.60
2022-10-09T12:42:24.019Z,2.83
2022-10-09T12:47:30.512Z,3.17
2022-10-09T12:52:33.974Z,3.33
2022-10-09T12:57:37.224Z,2.78
2022-10-09T13:02:41.984Z,3.25
2022-10-09T13:07:53.054Z,3.13
2022-10-09T13:12:58.812Z,2.47
2022-10-09T13:18:14.489Z,2.60
2022-10-09T13:23:29.443Z,3.45
2022-10-09T13:28:32.833Z,2.40
2022-10-09T13:33:37.301Z,3.60
2022-10-09T13:38:40.644Z,2.28
2022-10-09T13:43:44.000Z,2.83
2022-10-09T13:48:48.457Z,2.95
2022-10-09T13:53:51.752Z,1.98
2022-10-09T13:58:54.815Z,2.38
2022-10-09T14:03:59.332Z,2.95
2022-10-09T14:09:02.620Z,2.22
2022-10-09T14:14:05.714Z,2.75
2022-10-09T14:19:11.326Z,2.72
2022-10-09T14:24:14.501Z,1.95
2022-10-09T14:29:17.563Z,2.95
2022-10-09T14:34:22.169Z,2.83
2022-10-09T14:39:25.428Z,2.47
2022-10-09T14:44:28.552Z,3.10
2022-10-09T14:49:33.192Z,2.40
2022-10-09T14:54:36.373Z,2.35
2022-10-09T14:59:39.437Z,2.80
2022-10-09T15:04:44.402Z,1.98
2022-10-09T15:09:47.529Z,2.50
2022-10-09T15:14:51.192Z,2.53
2022-10-09T15:19:55.736Z,1.92
2022-10-09T15:24:58.806Z,2.25
2022-10-09T15:30:02.040Z,2.30
2022-10-09T15:35:07.630Z,3.78
2022-10-09T15:40:11.651Z,2.00
2022-10-09T15:45:14.830Z,2.10
2022-10-09T15:50:19.479Z,2.30
2022-10-09T15:55:22.537Z,2.05
2022-10-09T16:00:25.618Z,1.85
2022-10-09T16:05:30.076Z,1.88
2022-10-09T16:10:33.228Z,2.03
2022-10-09T16:15:39.912Z,2.97
2022-10-09T16:20:44.880Z,1.75
2022-10-09T16:25:58.787Z,2.38
2022-10-09T16:31:02.081Z,2.20
2022-10-09T16:36:11.116Z,2.40
2022-10-09T16:41:17.938Z,1.60
2022-10-09T16:46:23.812Z,2.35
2022-10-09T16:51:30.325Z,2.63
2022-10-09T16:56:36.448Z,1.95
2022-10-09T17:01:43.767Z,1.95
2022-10-09T17:06:48.340Z,2.33
2022-10-09T17:11:51.416Z,2.03
2022-10-09T17:16:54.869Z,2.00
2022-10-09T17:21:59.345Z,2.50
2022-10-09T17:27:02.416Z,1.50
2022-10-09T17:32:08.114Z,1.33
2022-10-09T17:37:13.476Z,2.00
2022-10-09T17:42:16.765Z,2.10
2022-10-09T17:47:19.850Z,1.70
2022-10-09T17:52:24.394Z,2.10
2022-10-09T17:57:27.587Z,2.30
2022-10-09T18:02:30.699Z,1.92
2022-10-09T18:07:35.319Z,1.70
2022-10-09T18:12:38.379Z,1.88
2022-10-09T18:17:41.764Z,2.05
2022-10-09T18:22:46.280Z,2.25
2022-10-09T18:27:49.558Z,1.70
2022-10-09T18:32:53.031Z,1.92
2022-10-09T18:37:57.510Z,1.42
2022-10-09T18:43:00.972Z,1.65
2022-10-09T18:48:04.692Z,2.20
2022-10-09T18:53:09.282Z,1.60
2022-10-09T18:58:14.997Z,2.22
2022-10-09T19:03:18.029Z,1.73
2022-10-09T19:08:22.509Z,2.90
2022-10-09T19:13:26.244Z,2.15
2022-10-09T19:18:29.337Z,2.00
2022-10-09T19:23:33.792Z,2.00
2022-10-09T19:28:38.563Z,1.80
2022-10-09T19:33:43.143Z,2.03
2022-10-09T19:38:48.756Z,3.13
2022-10-09T19:43:51.865Z,1.67
2022-10-09T19:48:55.054Z,2.13
2022-10-09T19:54:01.966Z,2.08
2022-10-09T19:59:07.991Z,2.10
2022-10-09T20:04:12.219Z,2.50
2022-10-09T20:09:17.315Z,1.83
2022-10-09T20:14:20.709Z,2.55
2022-10-09T20:19:25.185Z,1.65
2022-10-09T20:24:29.829Z,2.25
2022-10-09T20:29:33.157Z,1.77
2022-10-09T20:34:36.203Z,1.90
2022-10-09T20:39:40.771Z,2.83
2022-10-09T20:44:43.984Z,1.45
2022-10-09T20:49:47.145Z,2.08
2022-10-09T20:54:51.972Z,2.08
2022-10-09T20:59:55.207Z,2.45
2022-10-09T21:04:58.403Z,1.60
2022-10-09T21:10:02.807Z,2.00
2022-10-09T21:15:07.199Z,1.50
2022-10-09T21:20:11.040Z,1.90
2022-10-09T21:25:15.894Z,2.22
2022-10-09T21:30:19.344Z,2.17
2022-10-09T21:35:22.741Z,2.17
2022-10-09T21:40:27.201Z,3.30
2022-10-09T21:45:30.323Z,1.70
2022-10-09T21:50:34.121Z,1.80
2022-10-09T21:55:39.577Z,1.92
2022-10-09T22:00:42.601Z,2.05
2022-10-09T22:05:45.592Z,2.47
2022-10-09T22:10:50.132Z,2.25
2022-10-09T22:15:53.183Z,2.78
2022-10-09T22:20:56.167Z,1.83
2022-10-09T22:26:02.521Z,2.28
2022-10-09T22:31:07.876Z,2.63
2022-10-09T22:36:13.385Z,2.78
2022-10-09T22:41:19.520Z,2.00
2022-10-09T22:46:24.866Z,1.90
2022-10-09T22:51:29.610Z,1.58
2022-10-09T22:56:36.097Z,2.25
2022-10-09T23:01:42.658Z,2.72
2022-10-09T23:06:46.748Z,1.80
2022-10-09T23:11:51.696Z,1.70
2022-10-09T23:16:54.722Z,1.95
2022-10-09T23:21:57.955Z,2.55
2022-10-09T23:27:02.347Z,1.80
2022-10-09T23:32:05.371Z,2.63
2022-10-09T23:37:08.395Z,2.28
2022-10-09T23:42:12.788Z,1.60
2022-10-09T23:47:15.812Z,1.70
2022-10-09T23:52:18.871Z,2.40
2022-10-09T23:57:23.456Z,1.70
